sensor_id;sensor_type;location;lat;lon;timestamp;P1;durP1;ratioP1;P2;durP2;ratioP2
64950;SDS011;51482;47.014;7.652;2022-09-09T00:01:11;1.52;;;1.42;;
64950;SDS011;51482;47.014;7.652;2022-09-09T00:03:43;4.10;;;1.52;;
64950;SDS011;51482;47.014;7.652;2022-09-09T00:06:21;2.20;;;1.27;;
64950;SDS011;51482;47.014;7.652;2022-09-09T00:16:59;1.45;;;1.35;;
64950;SDS011;51482;47.014;7.652;2022-09-09T00:19:33;1.73;;;1.30;;
64950;SDS011;51482;47.014;7.652;2022-09-09T00:22:22;1.77;;;1.60;;
64950;SDS011;51482;47.014;7.652;2022-09-09T00:24:52;2.28;;;1.50;;
64950;SDS011;51482;47.014;7.652;2022-09-09T00:27:31;2.13;;;1.55;;
64950;SDS011;51482;47.014;7.652;2022-09-09T00:30:16;1.20;;;1.10;;
64950;SDS011;51482;47.014;7.652;2022-09-09T00:32:44;2.60;;;1.70;;
64950;SDS011;51482;47.014;7.652;2022-09-09T00:37:50;2.00;;;1.35;;
64950;SDS011;51482;47.014;7.652;2022-09-09T00:43:10;2.75;;;1.85;;
64950;SDS011;51482;47.014;7.652;2022-09-09T00:51:22;2.33;;;1.42;;
64950;SDS011;51482;47.014;7.652;2022-09-09T00:54:23;2.72;;;1.67;;
64950;SDS011;51482;47.014;7.652;2022-09-09T00:57:23;1.67;;;1.40;;
64950;SDS011;51482;47.014;7.652;2022-09-09T01:00:14;1.65;;;1.40;;
64950;SDS011;51482;47.014;7.652;2022-09-09T01:05:20;1.70;;;1.42;;
64950;SDS011;51482;47.014;7.652;2022-09-09T01:07:55;1.70;;;1.60;;
64950;SDS011;51482;47.014;7.652;2022-09-09T01:10:39;1.48;;;1.35;;
64950;SDS011;51482;47.014;7.652;2022-09-09T01:13:14;2.88;;;1.77;;
64950;SDS011;51482;47.014;7.652;2022-09-09T01:15:47;5.43;;;1.63;;
64950;SDS011;51482;47.014;7.652;2022-09-09T01:18:15;2.05;;;1.55;;
64950;SDS011;51482;47.014;7.652;2022-09-09T01:29:10;3.30;;;1.80;;
64950;SDS011;51482;47.014;7.652;2022-09-09T01:31:41;2.78;;;1.40;;
64950;SDS011;51482;47.014;7.652;2022-09-09T01:34:19;3.25;;;1.45;;
64950;SDS011;51482;47.014;7.652;2022-09-09T01:36:47;1.80;;;1.65;;
64950;SDS011;51482;47.014;7.652;2022-09-09T01:39:21;3.13;;;1.50;;
64950;SDS011;51482;47.014;7.652;2022-09-09T01:41:47;1.60;;;1.50;;
64950;SDS011;51482;47.014;7.652;2022-09-09T01:44:13;2.67;;;1.80;;
64950;SDS011;51482;47.014;7.652;2022-09-09T01:46:38;1.38;;;1.30;;
64950;SDS011;51482;47.014;7.652;2022-09-09T01:49:05;3.30;;;1.85;;
64950;SDS011;51482;47.014;7.652;2022-09-09T01:51:32;2.75;;;1.63;;
64950;SDS011;51482;47.014;7.652;2022-09-09T01:53:58;2.33;;;1.45;;
64950;SDS011;51482;47.014;7.652;2022-09-09T01:59:15;2.55;;;1.60;;
64950;SDS011;51482;47.014;7.652;2022-09-09T02:02:01;4.43;;;1.60;;
64950;SDS011;51482;47.014;7.652;2022-09-09T02:04:37;1.60;;;1.50;;
64950;SDS011;51482;47.014;7.652;2022-09-09T02:07:12;3.10;;;1.80;;
64950;SDS011;51482;47.014;7.652;2022-09-09T02:09:39;1.60;;;1.50;;
64950;SDS011;51482;47.014;7.652;2022-09-09T02:12:13;1.95;;;1.80;;
64950;SDS011;51482;47.014;7.652;2022-09-09T02:14:45;2.25;;;1.80;;
64950;SDS011;51482;47.014;7.652;2022-09-09T02:17:16;2.72;;;1.73;;
64950;SDS011;51482;47.014;7.652;2022-09-09T02:19:50;2.85;;;1.70;;
64950;SDS011;51482;47.014;7.652;2022-09-09T02:22:22;1.98;;;1.45;;
64950;SDS011;51482;47.014;7.652;2022-09-09T02:24:51;1.90;;;1.80;;
64950;SDS011;51482;47.014;7.652;2022-09-09T02:27:20;1.58;;;1.48;;
64950;SDS011;51482;47.014;7.652;2022-09-09T02:29:47;1.98;;;1.77;;
64950;SDS011;51482;47.014;7.652;2022-09-09T02:32:17;3.35;;;1.83;;
64950;SDS011;51482;47.014;7.652;2022-09-09T02:34:53;2.80;;;1.77;;
64950;SDS011;51482;47.014;7.652;2022-09-09T02:37:29;3.47;;;2.00;;
64950;SDS011;51482;47.014;7.652;2022-09-09T02:40:00;2.72;;;2.03;;
64950;SDS011;51482;47.014;7.652;2022-09-09T02:42:28;1.40;;;1.33;;
64950;SDS011;51482;47.014;7.652;2022-09-09T02:44:53;4.00;;;2.40;;
64950;SDS011;51482;47.014;7.652;2022-09-09T02:50:08;3.13;;;1.70;;
64950;SDS011;51482;47.014;7.652;2022-09-09T02:53:11;1.85;;;1.75;;
64950;SDS011;51482;47.014;7.652;2022-09-09T02:55:54;3.15;;;2.30;;
64950;SDS011;51482;47.014;7.652;2022-09-09T02:58:30;2.20;;;1.48;;
64950;SDS011;51482;47.014;7.652;2022-09-09T03:00:57;1.33;;;1.23;;
64950;SDS011;51482;47.014;7.652;2022-09-09T03:03:26;1.60;;;1.50;;
64950;SDS011;51482;47.014;7.652;2022-09-09T03:05:52;2.25;;;1.58;;
64950;SDS011;51482;47.014;7.652;2022-09-09T03:08:17;1.92;;;1.73;;
64950;SDS011;51482;47.014;7.652;2022-09-09T03:10:43;6.35;;;2.35;;
64950;SDS011;51482;47.014;7.652;2022-09-09T03:13:09;1.80;;;1.50;;
64950;SDS011;51482;47.014;7.652;2022-09-09T03:15:36;2.30;;;1.70;;
64950;SDS011;51482;47.014;7.652;2022-09-09T03:18:02;3.83;;;2.00;;
64950;SDS011;51482;47.014;7.652;2022-09-09T03:20:28;1.90;;;1.63;;
64950;SDS011;51482;47.014;7.652;2022-09-09T03:22:55;3.55;;;1.77;;
64950;SDS011;51482;47.014;7.652;2022-09-09T03:25:21;3.58;;;2.10;;
64950;SDS011;51482;47.014;7.652;2022-09-09T03:27:51;2.65;;;1.70;;
64950;SDS011;51482;47.014;7.652;2022-09-09T03:30:19;2.40;;;1.83;;
64950;SDS011;51482;47.014;7.652;2022-09-09T03:32:48;2.58;;;1.80;;
64950;SDS011;51482;47.014;7.652;2022-09-09T03:35:14;2.40;;;2.00;;
64950;SDS011;51482;47.014;7.652;2022-09-09T03:37:40;2.45;;;1.50;;
64950;SDS011;51482;47.014;7.652;2022-09-09T03:40:06;3.33;;;1.70;;
64950;SDS011;51482;47.014;7.652;2022-09-09T03:42:34;2.40;;;1.88;;
64950;SDS011;51482;47.014;7.652;2022-09-09T03:45:02;3.38;;;2.10;;
64950;SDS011;51482;47.014;7.652;2022-09-09T03:47:29;2.40;;;2.00;;
64950;SDS011;51482;47.014;7.652;2022-09-09T03:49:55;2.40;;;1.67;;
64950;SDS011;51482;47.014;7.652;2022-09-09T03:52:20;4.13;;;1.95;;
64950;SDS011;51482;47.014;7.652;2022-09-09T03:54:49;2.90;;;2.70;;
64950;SDS011;51482;47.014;7.652;2022-09-09T03:57:16;1.73;;;1.30;;
64950;SDS011;51482;47.014;7.652;2022-09-09T03:59:42;2.00;;;1.90;;
64950;SDS011;51482;47.014;7.652;2022-09-09T04:02:08;2.05;;;1.70;;
64950;SDS011;51482;47.014;7.652;2022-09-09T04:04:34;2.35;;;1.80;;
64950;SDS011;51482;47.014;7.652;2022-09-09T04:06:59;1.88;;;1.70;;
64950;SDS011;51482;47.014;7.652;2022-09-09T04:09:25;3.45;;;2.15;;
64950;SDS011;51482;47.014;7.652;2022-09-09T04:11:51;2.42;;;2.20;;
64950;SDS011;51482;47.014;7.652;2022-09-09T04:14:18;2.00;;;1.70;;
64950;SDS011;51482;47.014;7.652;2022-09-09T04:16:43;3.00;;;1.92;;
64950;SDS011;51482;47.014;7.652;2022-09-09T04:19:09;5.53;;;2.00;;
64950;SDS011;51482;47.014;7.652;2022-09-09T04:21:38;1.75;;;1.65;;
64950;SDS011;51482;47.014;7.652;2022-09-09T04:24:05;2.17;;;1.95;;
64950;SDS011;51482;47.014;7.652;2022-09-09T04:26:31;2.78;;;1.92;;
64950;SDS011;51482;47.014;7.652;2022-09-09T04:28:57;9.80;;;2.13;;
64950;SDS011;51482;47.014;7.652;2022-09-09T04:31:23;2.33;;;1.70;;
64950;SDS011;51482;47.014;7.652;2022-09-09T04:33:52;3.95;;;2.08;;
64950;SDS011;51482;47.014;7.652;2022-09-09T04:36:18;3.45;;;1.90;;
64950;SDS011;51482;47.014;7.652;2022-09-09T04:38:44;3.85;;;2.00;;
64950;SDS011;51482;47.014;7.652;2022-09-09T04:41:11;2.05;;;1.95;;
64950;SDS011;51482;47.014;7.652;2022-09-09T04:43:37;2.63;;;2.03;;
64950;SDS011;51482;47.014;7.652;2022-09-09T04:46:04;4.60;;;1.90;;
64950;SDS011;51482;47.014;7.652;2022-09-09T04:48:30;2.67;;;2.17;;
64950;SDS011;51482;47.014;7.652;2022-09-09T04:51:00;5.32;;;2.15;;
64950;SDS011;51482;47.014;7.652;2022-09-09T04:53:27;2.30;;;2.10;;
64950;SDS011;51482;47.014;7.652;2022-09-09T04:56:00;5.53;;;2.42;;
64950;SDS011;51482;47.014;7.652;2022-09-09T04:58:27;3.72;;;1.85;;
64950;SDS011;51482;47.014;7.652;2022-09-09T05:00:53;3.35;;;2.35;;
64950;SDS011;51482;47.014;7.652;2022-09-09T05:03:18;3.00;;;2.20;;
64950;SDS011;51482;47.014;7.652;2022-09-09T05:05:44;2.63;;;2.40;;
64950;SDS011;51482;47.014;7.652;2022-09-09T05:08:10;2.70;;;2.50;;
64950;SDS011;51482;47.014;7.652;2022-09-09T05:10:37;3.25;;;2.15;;
64950;SDS011;51482;47.014;7.652;2022-09-09T05:13:03;5.07;;;2.35;;
64950;SDS011;51482;47.014;7.652;2022-09-09T05:15:30;2.08;;;1.88;;
64950;SDS011;51482;47.014;7.652;2022-09-09T05:17:57;4.28;;;2.35;;
64950;SDS011;51482;47.014;7.652;2022-09-09T05:20:24;2.70;;;2.33;;
64950;SDS011;51482;47.014;7.652;2022-09-09T05:22:52;3.42;;;2.00;;
64950;SDS011;51482;47.014;7.652;2022-09-09T05:25:19;2.90;;;1.88;;
64950;SDS011;51482;47.014;7.652;2022-09-09T05:27:44;2.70;;;2.50;;
64950;SDS011;51482;47.014;7.652;2022-09-09T05:30:10;3.72;;;2.55;;
64950;SDS011;51482;47.014;7.652;2022-09-09T05:32:36;4.57;;;2.30;;
64950;SDS011;51482;47.014;7.652;2022-09-09T05:35:02;2.75;;;1.98;;
64950;SDS011;51482;47.014;7.652;2022-09-09T05:37:28;3.90;;;2.25;;
64950;SDS011;51482;47.014;7.652;2022-09-09T05:39:55;4.03;;;2.25;;
64950;SDS011;51482;47.014;7.652;2022-09-09T05:42:20;3.95;;;2.30;;
64950;SDS011;51482;47.014;7.652;2022-09-09T05:44:46;1.80;;;1.70;;
64950;SDS011;51482;47.014;7.652;2022-09-09T05:47:11;4.55;;;2.17;;
64950;SDS011;51482;47.014;7.652;2022-09-09T05:49:37;3.60;;;2.10;;
64950;SDS011;51482;47.014;7.652;2022-09-09T05:52:03;2.42;;;2.20;;
64950;SDS011;51482;47.014;7.652;2022-09-09T05:54:29;2.58;;;2.10;;
64950;SDS011;51482;47.014;7.652;2022-09-09T05:56:55;3.67;;;1.90;;
64950;SDS011;51482;47.014;7.652;2022-09-09T05:59:20;4.15;;;2.40;;
64950;SDS011;51482;47.014;7.652;2022-09-09T06:01:48;3.88;;;2.60;;
64950;SDS011;51482;47.014;7.652;2022-09-09T06:04:13;2.50;;;2.10;;
64950;SDS011;51482;47.014;7.652;2022-09-09T06:06:39;2.60;;;2.40;;
64950;SDS011;51482;47.014;7.652;2022-09-09T06:09:07;3.72;;;2.03;;
64950;SDS011;51482;47.014;7.652;2022-09-09T06:11:39;6.75;;;2.20;;
64950;SDS011;51482;47.014;7.652;2022-09-09T06:14:05;3.08;;;1.92;;
64950;SDS011;51482;47.014;7.652;2022-09-09T06:16:31;2.05;;;1.90;;
64950;SDS011;51482;47.014;7.652;2022-09-09T06:18:57;3.58;;;2.05;;
64950;SDS011;51482;47.014;7.652;2022-09-09T06:21:24;2.78;;;2.20;;
64950;SDS011;51482;47.014;7.652;2022-09-09T06:23:55;2.40;;;2.20;;
64950;SDS011;51482;47.014;7.652;2022-09-09T06:26:30;5.38;;;2.20;;
64950;SDS011;51482;47.014;7.652;2022-09-09T06:28:58;2.28;;;2.03;;
64950;SDS011;51482;47.014;7.652;2022-09-09T06:31:25;2.60;;;2.30;;
64950;SDS011;51482;47.014;7.652;2022-09-09T06:33:55;2.58;;;1.77;;
64950;SDS011;51482;47.014;7.652;2022-09-09T06:36:23;2.65;;;2.40;;
64950;SDS011;51482;47.014;7.652;2022-09-09T06:38:53;3.92;;;2.42;;
64950;SDS011;51482;47.014;7.652;2022-09-09T06:41:20;3.10;;;2.13;;
64950;SDS011;51482;47.014;7.652;2022-09-09T06:43:47;4.22;;;2.45;;
64950;SDS011;51482;47.014;7.652;2022-09-09T06:46:16;3.22;;;2.28;;
64950;SDS011;51482;47.014;7.652;2022-09-09T06:48:43;2.50;;;2.25;;
64950;SDS011;51482;47.014;7.652;2022-09-09T06:53:43;5.07;;;2.33;;
64950;SDS011;51482;47.014;7.652;2022-09-09T06:58:36;2.50;;;2.30;;
64950;SDS011;51482;47.014;7.652;2022-09-09T07:01:08;3.53;;;2.00;;
64950;SDS011;51482;47.014;7.652;2022-09-09T07:03:35;3.55;;;2.38;;
64950;SDS011;51482;47.014;7.652;2022-09-09T07:06:00;3.78;;;2.10;;
64950;SDS011;51482;47.014;7.652;2022-09-09T07:08:27;2.15;;;1.95;;
64950;SDS011;51482;47.014;7.652;2022-09-09T07:10:53;3.63;;;2.00;;
64950;SDS011;51482;47.014;7.652;2022-09-09T07:13:28;3.80;;;2.00;;
64950;SDS011;51482;47.014;7.652;2022-09-09T07:15:53;2.88;;;2.20;;
64950;SDS011;51482;47.014;7.652;2022-09-09T07:18:19;4.93;;;2.20;;
64950;SDS011;51482;47.014;7.652;2022-09-09T07:20:54;4.70;;;2.50;;
64950;SDS011;51482;47.014;7.652;2022-09-09T07:23:22;4.43;;;2.10;;
64950;SDS011;51482;47.014;7.652;2022-09-09T07:25:48;4.63;;;2.00;;
64950;SDS011;51482;47.014;7.652;2022-09-09T07:28:14;2.35;;;1.90;;
64950;SDS011;51482;47.014;7.652;2022-09-09T07:30:40;2.42;;;1.90;;
64950;SDS011;51482;47.014;7.652;2022-09-09T07:33:06;2.22;;;1.80;;
64950;SDS011;51482;47.014;7.652;2022-09-09T07:35:32;1.80;;;1.70;;
64950;SDS011;51482;47.014;7.652;2022-09-09T07:37:57;2.90;;;1.40;;
64950;SDS011;51482;47.014;7.652;2022-09-09T07:40:25;2.67;;;1.58;;
64950;SDS011;51482;47.014;7.652;2022-09-09T07:42:51;2.15;;;1.80;;
64950;SDS011;51482;47.014;7.652;2022-09-09T07:45:17;1.80;;;1.65;;
64950;SDS011;51482;47.014;7.652;2022-09-09T07:47:42;4.00;;;1.70;;
64950;SDS011;51482;47.014;7.652;2022-09-09T07:50:09;2.15;;;1.70;;
64950;SDS011;51482;47.014;7.652;2022-09-09T07:52:35;3.47;;;1.63;;
64950;SDS011;51482;47.014;7.652;2022-09-09T07:55:01;2.03;;;1.38;;
64950;SDS011;51482;47.014;7.652;2022-09-09T07:57:28;2.38;;;1.38;;
64950;SDS011;51482;47.014;7.652;2022-09-09T07:59:55;3.00;;;2.05;;
64950;SDS011;51482;47.014;7.652;2022-09-09T08:02:22;3.92;;;1.35;;
64950;SDS011;51482;47.014;7.652;2022-09-09T08:04:48;3.75;;;1.45;;
64950;SDS011;51482;47.014;7.652;2022-09-09T08:07:14;1.95;;;1.50;;
64950;SDS011;51482;47.014;7.652;2022-09-09T08:09:41;1.52;;;1.20;;
64950;SDS011;51482;47.014;7.652;2022-09-09T08:12:06;3.08;;;1.80;;
64950;SDS011;51482;47.014;7.652;2022-09-09T08:14:33;1.63;;;1.38;;
64950;SDS011;51482;47.014;7.652;2022-09-09T08:16:59;4.68;;;1.65;;
64950;SDS011;51482;47.014;7.652;2022-09-09T08:19:25;1.20;;;1.10;;
64950;SDS011;51482;47.014;7.652;2022-09-09T08:21:51;1.33;;;1.17;;
64950;SDS011;51482;47.014;7.652;2022-09-09T08:24:16;3.58;;;1.25;;
64950;SDS011;51482;47.014;7.652;2022-09-09T08:26:45;2.40;;;1.45;;
64950;SDS011;51482;47.014;7.652;2022-09-09T08:29:14;2.10;;;1.60;;
64950;SDS011;51482;47.014;7.652;2022-09-09T08:34:10;4.72;;;2.55;;
64950;SDS011;51482;47.014;7.652;2022-09-09T08:36:37;2.80;;;1.35;;
64950;SDS011;51482;47.014;7.652;2022-09-09T08:39:06;1.58;;;1.40;;
64950;SDS011;51482;47.014;7.652;2022-09-09T08:52:59;1.15;;;1.05;;
64950;SDS011;51482;47.014;7.652;2022-09-09T08:55:16;4.65;;;1.35;;
64950;SDS011;51482;47.014;7.652;2022-09-09T08:57:49;1.77;;;1.67;;
64950;SDS011;51482;47.014;7.652;2022-09-09T09:00:18;1.27;;;1.08;;
64950;SDS011;51482;47.014;7.652;2022-09-09T09:05:45;1.10;;;1.00;;
64950;SDS011;51482;47.014;7.652;2022-09-09T09:08:38;2.38;;;1.00;;
64950;SDS011;51482;47.014;7.652;2022-09-09T09:11:11;1.13;;;1.13;;
64950;SDS011;51482;47.014;7.652;2022-09-09T09:13:44;1.58;;;1.48;;
64950;SDS011;51482;47.014;7.652;2022-09-09T09:16:30;1.55;;;1.10;;
64950;SDS011;51482;47.014;7.652;2022-09-09T09:19:01;1.08;;;0.93;;
64950;SDS011;51482;47.014;7.652;2022-09-09T09:21:43;1.42;;;1.33;;
64950;SDS011;51482;47.014;7.652;2022-09-09T09:24:19;1.70;;;1.10;;
64950;SDS011;51482;47.014;7.652;2022-09-09T09:26:57;1.38;;;1.10;;
64950;SDS011;51482;47.014;7.652;2022-09-09T09:29:26;1.23;;;1.10;;
64950;SDS011;51482;47.014;7.652;2022-09-09T09:31:52;2.15;;;1.02;;
64950;SDS011;51482;47.014;7.652;2022-09-09T09:34:20;1.52;;;1.42;;
64950;SDS011;51482;47.014;7.652;2022-09-09T09:36:51;1.70;;;1.33;;
64950;SDS011;51482;47.014;7.652;2022-09-09T09:39:26;1.30;;;1.23;;
64950;SDS011;51482;47.014;7.652;2022-09-09T09:41:53;2.22;;;1.20;;
64950;SDS011;51482;47.014;7.652;2022-09-09T09:44:23;2.33;;;1.60;;
64950;SDS011;51482;47.014;7.652;2022-09-09T09:46:51;2.67;;;1.60;;
64950;SDS011;51482;47.014;7.652;2022-09-09T09:49:18;1.05;;;1.05;;
64950;SDS011;51482;47.014;7.652;2022-09-09T09:51:43;4.35;;;1.48;;
64950;SDS011;51482;47.014;7.652;2022-09-09T09:56:38;2.30;;;1.55;;
64950;SDS011;51482;47.014;7.652;2022-09-09T09:59:05;1.42;;;1.20;;
64950;SDS011;51482;47.014;7.652;2022-09-09T10:01:44;3.40;;;1.42;;
64950;SDS011;51482;47.014;7.652;2022-09-09T10:06:41;2.08;;;1.60;;
64950;SDS011;51482;47.014;7.652;2022-09-09T10:09:23;2.35;;;1.67;;
64950;SDS011;51482;47.014;7.652;2022-09-09T10:20:26;1.67;;;1.40;;
64950;SDS011;51482;47.014;7.652;2022-09-09T10:28:37;3.10;;;1.52;;
64950;SDS011;51482;47.014;7.652;2022-09-09T10:34:17;1.35;;;1.25;;
64950;SDS011;51482;47.014;7.652;2022-09-09T10:37:11;2.55;;;1.33;;
64950;SDS011;51482;47.014;7.652;2022-09-09T10:46:11;2.35;;;1.33;;
64950;SDS011;51482;47.014;7.652;2022-09-09T10:48:46;3.40;;;1.60;;
64950;SDS011;51482;47.014;7.652;2022-09-09T10:56:38;3.55;;;1.83;;
64950;SDS011;51482;47.014;7.652;2022-09-09T10:59:20;2.30;;;1.33;;
64950;SDS011;51482;47.014;7.652;2022-09-09T11:01:56;5.32;;;2.13;;
64950;SDS011;51482;47.014;7.652;2022-09-09T11:04:33;1.85;;;1.30;;
64950;SDS011;51482;47.014;7.652;2022-09-09T11:07:06;2.95;;;1.10;;
64950;SDS011;51482;47.014;7.652;2022-09-09T11:09:36;2.28;;;1.90;;
64950;SDS011;51482;47.014;7.652;2022-09-09T11:12:07;1.50;;;1.20;;
64950;SDS011;51482;47.014;7.652;2022-09-09T11:17:24;1.10;;;1.00;;
64950;SDS011;51482;47.014;7.652;2022-09-09T11:19:56;2.35;;;1.17;;
64950;SDS011;51482;47.014;7.652;2022-09-09T11:24:59;2.47;;;1.73;;
64950;SDS011;51482;47.014;7.652;2022-09-09T11:35:54;2.67;;;1.17;;
64950;SDS011;51482;47.014;7.652;2022-09-09T11:38:29;1.67;;;1.08;;
64950;SDS011;51482;47.014;7.652;2022-09-09T11:41:04;2.83;;;0.95;;
64950;SDS011;51482;47.014;7.652;2022-09-09T11:46:11;1.30;;;1.15;;
64950;SDS011;51482;47.014;7.652;2022-09-09T11:48:44;1.88;;;1.10;;
64950;SDS011;51482;47.014;7.652;2022-09-09T11:51:13;1.33;;;1.10;;
64950;SDS011;51482;47.014;7.652;2022-09-09T11:53:54;4.75;;;1.40;;
64950;SDS011;51482;47.014;7.652;2022-09-09T11:56:27;1.60;;;1.08;;
64950;SDS011;51482;47.014;7.652;2022-09-09T11:58:57;2.50;;;1.48;;
64950;SDS011;51482;47.014;7.652;2022-09-09T12:01:43;3.10;;;1.50;;
64950;SDS011;51482;47.014;7.652;2022-09-09T12:04:12;1.42;;;1.20;;
64950;SDS011;51482;47.014;7.652;2022-09-09T12:06:51;2.83;;;1.50;;
64950;SDS011;51482;47.014;7.652;2022-09-09T12:19:45;2.15;;;1.02;;
64950;SDS011;51482;47.014;7.652;2022-09-09T12:22:34;0.82;;;0.82;;
64950;SDS011;51482;47.014;7.652;2022-09-09T12:25:09;1.15;;;1.10;;
64950;SDS011;51482;47.014;7.652;2022-09-09T12:33:36;1.92;;;1.00;;
64950;SDS011;51482;47.014;7.652;2022-09-09T12:36:09;0.93;;;0.82;;
64950;SDS011;51482;47.014;7.652;2022-09-09T12:38:39;1.92;;;0.90;;
64950;SDS011;51482;47.014;7.652;2022-09-09T12:41:17;1.13;;;1.10;;
64950;SDS011;51482;47.014;7.652;2022-09-09T12:43:45;1.80;;;1.08;;
64950;SDS011;51482;47.014;7.652;2022-09-09T12:46:16;1.50;;;0.90;;
64950;SDS011;51482;47.014;7.652;2022-09-09T12:48:51;0.90;;;0.90;;
64950;SDS011;51482;47.014;7.652;2022-09-09T12:51:19;1.17;;;0.80;;
64950;SDS011;51482;47.014;7.652;2022-09-09T12:53:50;1.95;;;0.90;;
64950;SDS011;51482;47.014;7.652;2022-09-09T12:56:20;2.25;;;0.90;;
64950;SDS011;51482;47.014;7.652;2022-09-09T12:58:49;1.08;;;0.82;;
64950;SDS011;51482;47.014;7.652;2022-09-09T13:01:24;1.33;;;0.98;;
64950;SDS011;51482;47.014;7.652;2022-09-09T13:03:49;1.70;;;0.88;;
64950;SDS011;51482;47.014;7.652;2022-09-09T13:06:23;2.20;;;1.00;;
64950;SDS011;51482;47.014;7.652;2022-09-09T13:08:50;0.95;;;0.95;;
64950;SDS011;51482;47.014;7.652;2022-09-09T13:11:18;1.38;;;0.88;;
64950;SDS011;51482;47.014;7.652;2022-09-09T13:13:55;1.20;;;0.85;;
64950;SDS011;51482;47.014;7.652;2022-09-09T13:16:26;1.75;;;1.00;;
64950;SDS011;51482;47.014;7.652;2022-09-09T13:19:00;1.63;;;1.08;;
64950;SDS011;51482;47.014;7.652;2022-09-09T13:21:33;1.15;;;0.98;;
64950;SDS011;51482;47.014;7.652;2022-09-09T13:26:57;1.67;;;1.00;;
64950;SDS011;51482;47.014;7.652;2022-09-09T13:29:50;2.67;;;1.00;;
64950;SDS011;51482;47.014;7.652;2022-09-09T13:32:20;1.45;;;0.90;;
64950;SDS011;51482;47.014;7.652;2022-09-09T13:34:50;0.80;;;0.77;;
64950;SDS011;51482;47.014;7.652;2022-09-09T13:37:34;1.17;;;0.82;;
64950;SDS011;51482;47.014;7.652;2022-09-09T13:40:02;4.32;;;1.13;;
64950;SDS011;51482;47.014;7.652;2022-09-09T13:42:32;3.00;;;1.05;;
64950;SDS011;51482;47.014;7.652;2022-09-09T13:45:01;1.60;;;0.95;;
64950;SDS011;51482;47.014;7.652;2022-09-09T13:47:30;1.88;;;1.20;;
64950;SDS011;51482;47.014;7.652;2022-09-09T13:49:58;0.90;;;0.90;;
64950;SDS011;51482;47.014;7.652;2022-09-09T13:52:24;3.38;;;0.90;;
64950;SDS011;51482;47.014;7.652;2022-09-09T13:54:52;3.92;;;0.93;;
64950;SDS011;51482;47.014;7.652;2022-09-09T13:57:20;1.35;;;1.02;;
64950;SDS011;51482;47.014;7.652;2022-09-09T13:59:47;1.23;;;1.08;;
64950;SDS011;51482;47.014;7.652;2022-09-09T14:02:16;1.48;;;1.30;;
64950;SDS011;51482;47.014;7.652;2022-09-09T14:04:42;2.47;;;0.90;;
64950;SDS011;51482;47.014;7.652;2022-09-09T14:07:09;1.67;;;1.02;;
64950;SDS011;51482;47.014;7.652;2022-09-09T14:09:38;2.05;;;1.17;;
64950;SDS011;51482;47.014;7.652;2022-09-09T14:12:05;3.15;;;0.90;;
64950;SDS011;51482;47.014;7.652;2022-09-09T14:14:33;1.17;;;0.82;;
64950;SDS011;51482;47.014;7.652;2022-09-09T14:16:59;3.25;;;1.17;;
64950;SDS011;51482;47.014;7.652;2022-09-09T14:19:25;3.13;;;1.10;;
64950;SDS011;51482;47.014;7.652;2022-09-09T14:21:51;3.17;;;0.80;;
64950;SDS011;51482;47.014;7.652;2022-09-09T14:24:16;1.73;;;1.10;;
64950;SDS011;51482;47.014;7.652;2022-09-09T14:26:42;2.03;;;1.15;;
64950;SDS011;51482;47.014;7.652;2022-09-09T14:29:08;1.30;;;0.88;;
64950;SDS011;51482;47.014;7.652;2022-09-09T14:31:33;2.28;;;0.80;;
64950;SDS011;51482;47.014;7.652;2022-09-09T14:33:59;1.20;;;1.02;;
64950;SDS011;51482;47.014;7.652;2022-09-09T14:36:25;5.60;;;1.45;;
64950;SDS011;51482;47.014;7.652;2022-09-09T14:38:50;0.60;;;0.60;;
64950;SDS011;51482;47.014;7.652;2022-09-09T14:41:17;2.15;;;0.82;;
64950;SDS011;51482;47.014;7.652;2022-09-09T14:43:44;2.05;;;0.93;;
64950;SDS011;51482;47.014;7.652;2022-09-09T14:46:15;0.85;;;0.75;;
64950;SDS011;51482;47.014;7.652;2022-09-09T14:48:42;0.90;;;0.73;;
64950;SDS011;51482;47.014;7.652;2022-09-09T14:51:10;4.97;;;0.98;;
64950;SDS011;51482;47.014;7.652;2022-09-09T14:53:38;2.58;;;1.10;;
64950;SDS011;51482;47.014;7.652;2022-09-09T14:56:05;1.58;;;0.90;;
64950;SDS011;51482;47.014;7.652;2022-09-09T14:58:36;2.00;;;1.20;;
64950;SDS011;51482;47.014;7.652;2022-09-09T15:01:06;2.70;;;1.00;;
64950;SDS011;51482;47.014;7.652;2022-09-09T15:03:35;1.20;;;0.80;;
64950;SDS011;51482;47.014;7.652;2022-09-09T15:06:05;1.40;;;0.70;;
64950;SDS011;51482;47.014;7.652;2022-09-09T15:08:33;1.23;;;1.13;;
64950;SDS011;51482;47.014;7.652;2022-09-09T15:11:03;1.10;;;1.00;;
64950;SDS011;51482;47.014;7.652;2022-09-09T15:13:29;2.60;;;0.98;;
64950;SDS011;51482;47.014;7.652;2022-09-09T15:15:55;1.60;;;0.80;;
64950;SDS011;51482;47.014;7.652;2022-09-09T15:18:21;1.38;;;1.02;;
64950;SDS011;51482;47.014;7.652;2022-09-09T15:20:46;0.82;;;0.65;;
64950;SDS011;51482;47.014;7.652;2022-09-09T15:23:12;1.77;;;0.73;;
64950;SDS011;51482;47.014;7.652;2022-09-09T15:25:38;5.32;;;1.02;;
64950;SDS011;51482;47.014;7.652;2022-09-09T15:28:15;1.40;;;1.00;;
64950;SDS011;51482;47.014;7.652;2022-09-09T15:30:41;0.82;;;0.70;;
64950;SDS011;51482;47.014;7.652;2022-09-09T15:33:09;1.60;;;0.77;;
64950;SDS011;51482;47.014;7.652;2022-09-09T15:35:34;1.70;;;0.90;;
64950;SDS011;51482;47.014;7.652;2022-09-09T15:38:01;0.73;;;0.70;;
64950;SDS011;51482;47.014;7.652;2022-09-09T15:40:29;1.10;;;0.80;;
64950;SDS011;51482;47.014;7.652;2022-09-09T15:42:57;1.73;;;1.02;;
64950;SDS011;51482;47.014;7.652;2022-09-09T15:45:23;0.70;;;0.60;;
64950;SDS011;51482;47.014;7.652;2022-09-09T15:47:48;2.03;;;1.00;;
64950;SDS011;51482;47.014;7.652;2022-09-09T15:50:14;1.92;;;0.80;;
64950;SDS011;51482;47.014;7.652;2022-09-09T15:52:40;1.50;;;0.82;;
64950;SDS011;51482;47.014;7.652;2022-09-09T15:55:06;2.17;;;0.75;;
64950;SDS011;51482;47.014;7.652;2022-09-09T15:57:34;1.30;;;0.95;;
64950;SDS011;51482;47.014;7.652;2022-09-09T16:00:00;3.10;;;0.95;;
64950;SDS011;51482;47.014;7.652;2022-09-09T16:02:26;2.15;;;1.10;;
64950;SDS011;51482;47.014;7.652;2022-09-09T16:04:52;2.35;;;0.80;;
64950;SDS011;51482;47.014;7.652;2022-09-09T16:07:17;1.17;;;0.95;;
64950;SDS011;51482;47.014;7.652;2022-09-09T16:09:43;1.42;;;1.10;;
64950;SDS011;51482;47.014;7.652;2022-09-09T16:12:08;2.47;;;1.02;;
64950;SDS011;51482;47.014;7.652;2022-09-09T16:14:36;1.13;;;0.60;;
64950;SDS011;51482;47.014;7.652;2022-09-09T16:17:03;0.98;;;0.85;;
64950;SDS011;51482;47.014;7.652;2022-09-09T16:19:30;1.48;;;0.88;;
64950;SDS011;51482;47.014;7.652;2022-09-09T16:21:57;2.17;;;0.68;;
64950;SDS011;51482;47.014;7.652;2022-09-09T16:24:23;2.20;;;0.90;;
64950;SDS011;51482;47.014;7.652;2022-09-09T16:26:49;1.67;;;1.23;;
64950;SDS011;51482;47.014;7.652;2022-09-09T16:29:16;2.38;;;0.85;;
64950;SDS011;51482;47.014;7.652;2022-09-09T16:31:44;2.90;;;0.70;;
64950;SDS011;51482;47.014;7.652;2022-09-09T16:34:11;2.40;;;0.85;;
64950;SDS011;51482;47.014;7.652;2022-09-09T16:36:39;16.50;;;4.97;;
64950;SDS011;51482;47.014;7.652;2022-09-09T16:39:07;13.98;;;4.20;;
64950;SDS011;51482;47.014;7.652;2022-09-09T16:41:34;3.67;;;2.17;;
64950;SDS011;51482;47.014;7.652;2022-09-09T16:44:01;10.35;;;3.92;;
64950;SDS011;51482;47.014;7.652;2022-09-09T16:46:29;6.00;;;2.28;;
64950;SDS011;51482;47.014;7.652;2022-09-09T16:48:57;0.95;;;0.85;;
64950;SDS011;51482;47.014;7.652;2022-09-09T16:51:25;1.05;;;0.70;;
64950;SDS011;51482;47.014;7.652;2022-09-09T16:53:52;1.13;;;0.70;;
64950;SDS011;51482;47.014;7.652;2022-09-09T16:56:20;3.28;;;1.25;;
64950;SDS011;51482;47.014;7.652;2022-09-09T16:58:51;3.40;;;1.02;;
64950;SDS011;51482;47.014;7.652;2022-09-09T17:01:25;0.88;;;0.73;;
64950;SDS011;51482;47.014;7.652;2022-09-09T17:03:55;2.10;;;0.98;;
64950;SDS011;51482;47.014;7.652;2022-09-09T17:06:22;2.83;;;1.02;;
64950;SDS011;51482;47.014;7.652;2022-09-09T17:08:53;2.15;;;0.95;;